Time;durP1;ratioP1;P1;durP2;ratioP2;P2;SDS_P1;SDS_P2;PMS_P1;PMS_P2;Temp;Humidity;BMP_temperature;BMP_pressure;BME280_temperature;BME280_humidity;BME280_pressure;Samples;Min_cycle;Max_cycle;Signal;HPM_P1;HPM_P2
2022/04/27 00:01:29;;;;;;;4.05;1.88;;;18.80;44.60;;;;;;5075771;28;20159;-83
2022/04/27 00:03:55;;;;;;;2.33;1.90;;;18.90;44.60;;;;;;5057734;28;20170;-83
2022/04/27 00:06:20;;;;;;;3.05;1.90;;;18.90;44.50;;;;;;5041089;28;20671;-83
2022/04/27 00:08:46;;;;;;;3.38;1.77;;;18.90;44.50;;;;;;5075794;28;20617;-82
2022/04/27 00:11:11;;;;;;;3.30;2.05;;;18.80;44.60;;;;;;5041159;28;20174;-83
2022/04/27 00:13:37;;;;;;;2.38;1.65;;;18.80;44.50;;;;;;5057463;28;20193;-83
2022/04/27 00:16:04;;;;;;;2.67;1.65;;;18.80;44.50;;;;;;5057614;28;20153;-83
2022/04/27 00:18:29;;;;;;;3.10;1.80;;;18.80;44.50;;;;;;5057234;28;20201;-83
2022/04/27 00:20:55;;;;;;;3.60;1.80;;;18.80;44.50;;;;;;5058087;28;20172;-83
2022/04/27 00:23:25;;;;;;;2.83;1.90;;;18.80;44.60;;;;;;5075577;28;20181;-83
2022/04/27 00:25:51;;;;;;;2.47;1.60;;;18.80;44.70;;;;;;5058267;28;20154;-83
2022/04/27 00:28:17;;;;;;;2.45;1.77;;;18.90;44.70;;;;;;5057440;28;20157;-83
2022/04/27 00:30:47;;;;;;;3.78;2.28;;;18.80;44.60;;;;;;5040291;28;20584;-83
2022/04/27 00:33:13;;;;;;;5.45;1.90;;;18.80;44.70;;;;;;5040215;28;20238;-83
2022/04/27 00:35:39;;;;;;;3.63;1.92;;;18.80;44.70;;;;;;5057050;28;20260;-83
2022/04/27 00:38:04;;;;;;;4.75;1.73;;;18.90;44.70;;;;;;5074971;28;20189;-82
2022/04/27 00:40:30;;;;;;;3.67;1.95;;;18.90;44.60;;;;;;5057462;28;20580;-83
2022/04/27 00:42:55;;;;;;;2.22;1.90;;;18.80;44.70;;;;;;5075138;28;20204;-84
2022/04/27 00:45:21;;;;;;;2.53;1.63;;;18.80;44.70;;;;;;5040434;28;20176;-83
2022/04/27 00:47:47;;;;;;;3.30;2.00;;;18.80;44.80;;;;;;5057137;28;20165;-83
2022/04/27 00:50:13;;;;;;;3.85;2.10;;;18.80;44.80;;;;;;5057324;28;20231;-83
2022/04/27 00:52:39;;;;;;;4.05;1.98;;;18.80;44.80;;;;;;5074413;28;20687;-83
2022/04/27 00:55:09;;;;;;;3.08;1.77;;;18.80;44.90;;;;;;5040184;28;20180;-83
2022/04/27 00:57:35;;;;;;;1.90;1.70;;;18.90;45.00;;;;;;5022527;28;20311;-83
2022/04/27 01:00:02;;;;;;;2.33;1.80;;;18.80;45.00;;;;;;5074889;28;20690;-83
2022/04/27 01:02:28;;;;;;;2.67;1.88;;;18.80;44.80;;;;;;5074753;28;20153;-83
2022/04/27 01:04:54;;;;;;;2.42;1.73;;;18.80;44.70;;;;;;5074393;28;20161;-83
2022/04/27 01:07:19;;;;;;;1.77;1.42;;;18.80;44.80;;;;;;5039903;28;20248;-83
2022/04/27 01:09:45;;;;;;;2.15;1.60;;;18.80;44.90;;;;;;5056545;28;20161;-83
2022/04/27 01:12:11;;;;;;;2.33;1.75;;;18.70;44.80;;;;;;5056629;28;20201;-83
2022/04/27 01:14:42;;;;;;;3.17;1.65;;;18.70;44.80;;;;;;5056702;28;20157;-83
2022/04/27 01:17:08;;;;;;;2.67;1.80;;;18.70;44.80;;;;;;5056132;28;20181;-83
2022/04/27 01:19:33;;;;;;;3.75;2.00;;;18.70;44.60;;;;;;5039767;28;20260;-83
2022/04/27 01:21:59;;;;;;;2.78;2.00;;;18.70;44.80;;;;;;5074394;28;20158;-83
2022/04/27 01:24:25;;;;;;;3.97;1.90;;;18.70;44.80;;;;;;5039529;28;20165;-84
2022/04/27 01:26:52;;;;;;;2.78;1.60;;;18.60;44.70;;;;;;5074201;28;20161;-83
2022/04/27 01:29:18;;;;;;;2.33;1.60;;;18.70;44.70;;;;;;5056203;28;20218;-83
2022/04/27 01:31:44;;;;;;;2.78;1.90;;;18.70;44.90;;;;;;5056350;28;20166;-83
2022/04/27 01:34:11;;;;;;;2.17;1.95;;;18.70;44.80;;;;;;5073953;28;20168;-83
2022/04/27 01:36:37;;;;;;;2.70;2.00;;;18.70;44.80;;;;;;5055902;28;20188;-82
2022/04/27 01:39:02;;;;;;;4.80;1.80;;;18.70;45.00;;;;;;5039850;28;20632;-83
2022/04/27 01:41:28;;;;;;;2.88;2.10;;;18.70;44.90;;;;;;5056258;28;20268;-83
2022/04/27 01:43:54;;;;;;;2.75;1.75;;;18.60;44.80;;;;;;5073713;28;20219;-83
2022/04/27 01:46:19;;;;;;;2.08;1.73;;;18.70;45.00;;;;;;5073865;28;20165;-83
2022/04/27 01:48:45;;;;;;;2.92;1.98;;;18.70;44.90;;;;;;5056107;28;20181;-83
2022/04/27 01:51:11;;;;;;;3.95;2.05;;;18.70;44.90;;;;;;5056179;28;20153;-83
2022/04/27 01:56:17;;;;;;;3.35;1.80;;;18.60;45.00;;;;;;5057859;28;20158;-83
2022/04/27 01:58:42;;;;;;;2.53;1.70;;;18.70;45.10;;;;;;5055622;28;20180;-83
2022/04/27 02:01:11;;;;;;;2.65;1.85;;;18.70;45.00;;;;;;5055766;28;20549;-83
2022/04/27 02:03:37;;;;;;;1.85;1.65;;;18.70;44.90;;;;;;5055875;28;20153;-83
2022/04/27 02:06:03;;;;;;;3.80;1.77;;;18.70;45.10;;;;;;5055537;28;20165;-83
2022/04/27 02:08:29;;;;;;;3.00;1.67;;;18.70;45.10;;;;;;5073134;28;20158;-83
2022/04/27 02:10:54;;;;;;;3.35;1.90;;;18.60;45.10;;;;;;5055545;28;20624;-83
2022/04/27 02:13:21;;;;;;;2.20;1.63;;;18.60;45.10;;;;;;5055257;28;20165;-83
2022/04/27 02:15:48;;;;;;;3.20;1.58;;;18.60;45.10;;;;;;5038062;28;20528;-82
2022/04/27 02:18:19;;;;;;;3.00;1.88;;;18.60;45.10;;;;;;5037766;28;20216;-83
2022/04/27 02:20:46;;;;;;;2.15;1.67;;;18.60;45.10;;;;;;5039471;28;20181;-83
2022/04/27 02:23:13;;;;;;;2.80;1.67;;;18.60;45.10;;;;;;5038154;28;20181;-82
2022/04/27 02:25:40;;;;;;;3.78;2.05;;;18.60;45.00;;;;;;5038265;28;20218;-83
2022/04/27 02:28:06;;;;;;;4.53;1.75;;;18.60;44.90;;;;;;5073143;28;20141;-83
2022/04/27 02:30:32;;;;;;;2.65;1.73;;;18.60;44.80;;;;;;5055109;28;20636;-83
2022/04/27 02:32:58;;;;;;;2.10;1.90;;;18.60;44.80;;;;;;5055381;28;20223;-83
2022/04/27 02:35:23;;;;;;;2.63;1.67;;;18.70;44.90;;;;;;5055430;28;20236;-83
2022/04/27 02:37:49;;;;;;;3.40;1.98;;;18.60;44.90;;;;;;5055243;28;20639;-83
2022/04/27 02:40:16;;;;;;;2.40;1.98;;;18.60;44.90;;;;;;5055114;28;20189;-83
2022/04/27 02:42:43;;;;;;;2.95;1.67;;;18.60;45.00;;;;;;5037982;28;20188;-83
2022/04/27 02:45:11;;;;;;;1.75;1.58;;;18.60;45.10;;;;;;5037691;28;20185;-82
2022/04/27 02:47:38;;;;;;;2.53;1.77;;;18.60;45.00;;;;;;5021185;28;20188;-82
2022/04/27 02:52:51;;;;;;;4.78;1.90;;;18.60;45.20;;;;;;5043348;28;20248;-82
2022/04/27 02:55:17;;;;;;;3.33;1.70;;;18.50;45.10;;;;;;5004537;28;20188;-83
2022/04/27 02:57:42;;;;;;;2.50;1.63;;;18.60;45.10;;;;;;5055173;28;20193;-83
2022/04/27 03:00:09;;;;;;;3.03;1.67;;;18.60;45.00;;;;;;5055014;28;20259;-83
2022/04/27 03:02:34;;;;;;;3.60;1.60;;;18.50;45.20;;;;;;5054958;28;20181;-84
2022/04/27 03:05:00;;;;;;;2.13;1.52;;;18.50;45.20;;;;;;5054859;28;20220;-82
2022/04/27 03:07:28;;;;;;;2.08;1.70;;;18.50;45.20;;;;;;5038385;28;20165;-83
2022/04/27 03:09:54;;;;;;;3.63;1.85;;;18.50;45.30;;;;;;5038416;28;20177;-83
2022/04/27 03:12:22;;;;;;;4.38;1.70;;;18.50;45.20;;;;;;5055085;28;20154;-82
2022/04/27 03:14:49;;;;;;;2.63;1.80;;;18.50;45.30;;;;;;5021018;28;20197;-82
2022/04/27 03:17:17;;;;;;;3.00;1.70;;;18.50;45.30;;;;;;5037663;28;20220;-83
2022/04/27 03:19:47;;;;;;;2.42;1.73;;;18.50;45.30;;;;;;5037677;28;20181;-83
2022/04/27 03:22:14;;;;;;;2.60;1.90;;;18.50;45.30;;;;;;5041637;28;20276;-83
2022/04/27 03:24:41;;;;;;;2.20;1.60;;;18.50;45.20;;;;;;5024477;28;20652;-82
2022/04/27 03:27:07;;;;;;;4.07;1.60;;;18.50;45.20;;;;;;5041058;28;20185;-83
2022/04/27 03:29:32;;;;;;;3.00;1.80;;;18.50;45.30;;;;;;5058686;28;20525;-82
2022/04/27 03:31:58;;;;;;;2.10;1.50;;;18.50;45.20;;;;;;5041641;28;20691;-82
2022/04/27 03:34:26;;;;;;;2.60;1.73;;;18.50;45.40;;;;;;5041909;28;20169;-83
2022/04/27 03:36:53;;;;;;;2.60;1.50;;;18.50;45.30;;;;;;5041823;28;20196;-82
2022/04/27 03:39:19;;;;;;;2.38;1.88;;;18.50;45.30;;;;;;5041635;28;20161;-83
2022/04/27 03:41:45;;;;;;;2.45;1.80;;;18.50;46.10;;;;;;5058266;28;20185;-83
2022/04/27 03:44:11;;;;;;;1.98;1.60;;;18.50;45.40;;;;;;5058148;28;20244;-82
2022/04/27 03:46:37;;;;;;;2.20;1.67;;;18.50;45.30;;;;;;5041531;28;20637;-82
2022/04/27 03:49:04;;;;;;;2.13;1.70;;;18.50;45.40;;;;;;5041336;28;20546;-83
2022/04/27 03:51:29;;;;;;;3.92;1.65;;;18.50;45.30;;;;;;5023687;28;20182;-82
2022/04/27 03:53:56;;;;;;;3.08;1.92;;;18.40;45.20;;;;;;5041321;28;20169;-83
2022/04/27 03:56:23;;;;;;;1.63;1.50;;;18.50;45.40;;;;;;5040962;28;20186;-82
2022/04/27 03:58:50;;;;;;;2.33;1.80;;;18.50;45.20;;;;;;5023822;28;20242;-82
2022/04/27 04:01:15;;;;;;;2.35;1.70;;;18.50;45.30;;;;;;5023951;28;20173;-83
2022/04/27 04:03:42;;;;;;;2.80;1.58;;;18.50;45.20;;;;;;5041592;28;20693;-83
2022/04/27 04:06:10;;;;;;;2.70;1.85;;;18.40;45.30;;;;;;5023976;28;20622;-83
2022/04/27 04:08:37;;;;;;;2.42;1.60;;;18.50;45.20;;;;;;5040564;28;20180;-82
2022/04/27 04:11:04;;;;;;;3.10;1.50;;;18.50;45.30;;;;;;5040412;28;20177;-82
2022/04/27 04:13:31;;;;;;;1.95;1.60;;;18.50;45.00;;;;;;5039813;28;20197;-82
2022/04/27 04:15:59;;;;;;;2.72;1.90;;;18.50;45.30;;;;;;5007525;28;20181;-83
2022/04/27 04:18:26;;;;;;;2.03;1.63;;;18.50;45.40;;;;;;5039905;28;20219;-82
2022/04/27 04:20:53;;;;;;;3.08;1.65;;;18.50;46.10;;;;;;5040330;28;20189;-83
2022/04/27 04:23:22;;;;;;;3.75;1.83;;;18.50;45.50;;;;;;5040217;28;20173;-83
2022/04/27 04:28:36;;;;;;;2.45;1.52;;;18.40;45.20;;;;;;5045993;28;20182;-82
2022/04/27 04:31:04;;;;;;;2.70;1.70;;;18.50;45.30;;;;;;5023550;28;20238;-83
2022/04/27 04:33:30;;;;;;;2.28;1.80;;;18.50;45.30;;;;;;5023677;28;20286;-83
2022/04/27 04:35:57;;;;;;;2.65;1.73;;;18.50;45.30;;;;;;5040588;28;20310;-82
2022/04/27 04:38:23;;;;;;;2.53;1.70;;;18.50;44.80;;;;;;5057587;28;20246;-82
2022/04/27 04:40:53;;;;;;;2.17;1.70;;;18.50;44.80;;;;;;5023413;28;20188;-83
2022/04/27 04:43:20;;;;;;;2.83;1.80;;;18.50;44.90;;;;;;5040009;28;20185;-82
2022/04/27 04:45:48;;;;;;;2.20;1.60;;;18.60;44.80;;;;;;5040143;28;20181;-84
2022/04/27 04:48:15;;;;;;;2.00;1.65;;;18.50;44.80;;;;;;5023337;28;20185;-83
2022/04/27 04:50:42;;;;;;;2.88;1.67;;;18.60;44.50;;;;;;5039851;28;20259;-82
2022/04/27 04:53:09;;;;;;;2.33;1.65;;;18.60;44.80;;;;;;5039530;28;20229;-83
2022/04/27 04:55:35;;;;;;;2.42;1.50;;;18.50;44.40;;;;;;5039550;28;20266;-83
2022/04/27 04:58:02;;;;;;;3.25;1.90;;;18.60;44.80;;;;;;5056850;28;20223;-83
2022/04/27 05:00:27;;;;;;;2.40;1.80;;;18.60;44.20;;;;;;5056764;28;20638;-83
2022/04/27 05:02:54;;;;;;;1.95;1.40;;;18.60;44.50;;;;;;5074515;28;20161;-83
2022/04/27 05:05:19;;;;;;;2.03;1.63;;;18.60;44.20;;;;;;5056960;28;20150;-84
2022/04/27 05:07:45;;;;;;;2.20;1.80;;;18.60;44.40;;;;;;5040064;28;20184;-83
2022/04/27 05:10:14;;;;;;;1.70;1.40;;;18.60;44.40;;;;;;5074386;28;20511;-83
2022/04/27 05:12:43;;;;;;;1.73;1.48;;;18.60;44.10;;;;;;5022847;28;20185;-83
2022/04/27 05:15:12;;;;;;;2.03;1.40;;;18.50;44.10;;;;;;5022998;28;20200;-82
2022/04/27 05:17:41;;;;;;;2.42;1.70;;;18.60;44.40;;;;;;5022686;28;20220;-82
2022/04/27 05:20:11;;;;;;;2.38;1.73;;;18.60;45.00;;;;;;5039158;28;20184;-82
2022/04/27 05:22:39;;;;;;;1.80;1.50;;;18.60;44.30;;;;;;5022627;28;20177;-83
2022/04/27 05:25:09;;;;;;;2.42;1.63;;;18.60;44.20;;;;;;5006021;28;20219;-83
2022/04/27 05:27:38;;;;;;;3.15;1.67;;;18.60;44.20;;;;;;5006023;28;20177;-82
2022/04/27 05:32:49;;;;;;;2.03;1.40;;;18.60;44.50;;;;;;5028920;28;20197;-83
2022/04/27 05:35:17;;;;;;;3.60;1.48;;;18.60;44.20;;;;;;5039146;28;20181;-82
2022/04/27 05:37:44;;;;;;;3.40;1.80;;;18.60;44.40;;;;;;5022385;28;20209;-83
2022/04/27 05:40:12;;;;;;;2.70;1.40;;;18.60;44.40;;;;;;5022047;28;20264;-83
2022/04/27 05:42:38;;;;;;;2.83;1.35;;;18.60;43.90;;;;;;5021812;28;20670;-83
2022/04/27 05:45:04;;;;;;;1.92;1.63;;;18.70;44.10;;;;;;5039285;28;20199;-83
2022/04/27 05:47:30;;;;;;;2.40;1.70;;;18.70;44.30;;;;;;5056102;28;20157;-84
2022/04/27 05:49:56;;;;;;;1.65;1.30;;;18.70;44.00;;;;;;5055939;28;20160;-82
2022/04/27 05:52:21;;;;;;;2.17;1.38;;;18.80;42.90;;;;;;5039388;28;20230;-82
2022/04/27 05:54:48;;;;;;;1.92;1.45;;;18.80;43.20;;;;;;5039363;28;20173;-87
2022/04/27 05:57:14;;;;;;;2.35;1.67;;;18.80;43.50;;;;;;5039078;28;20201;-85
2022/04/27 05:59:40;;;;;;;2.35;1.45;;;18.80;43.20;;;;;;5039283;28;20605;-84
2022/04/27 06:02:06;;;;;;;2.70;1.58;;;18.80;43.60;;;;;;5055877;28;20172;-82
2022/04/27 06:04:31;;;;;;;2.72;1.48;;;18.80;43.30;;;;;;5039112;28;20158;-83
2022/04/27 06:06:57;;;;;;;1.60;1.35;;;18.80;43.70;;;;;;5055954;28;20515;-83
2022/04/27 06:09:23;;;;;;;1.38;1.27;;;18.70;44.10;;;;;;5055673;28;20201;-83
2022/04/27 06:11:48;;;;;;;1.42;1.33;;;18.70;43.60;;;;;;5039867;28;20173;-82
2022/04/27 06:14:14;;;;;;;2.25;1.60;;;18.80;43.50;;;;;;5058928;28;20153;-82
2022/04/27 06:16:39;;;;;;;2.28;1.45;;;18.80;43.50;;;;;;5058354;28;20168;-82
2022/04/27 06:19:05;;;;;;;3.53;1.40;;;18.80;43.60;;;;;;5057978;28;20172;-82
2022/04/27 06:21:31;;;;;;;2.17;1.60;;;18.80;43.70;;;;;;5056887;28;20161;-82
2022/04/27 06:23:58;;;;;;;2.45;1.50;;;18.80;43.50;;;;;;5057475;28;20153;-82
2022/04/27 06:26:25;;;;;;;3.08;1.48;;;18.90;43.50;;;;;;5057069;28;20176;-82
2022/04/27 06:28:52;;;;;;;2.42;1.90;;;18.90;43.20;;;;;;5057596;28;20192;-83
2022/04/27 06:31:18;;;;;;;2.13;1.55;;;18.90;43.90;;;;;;5075521;28;20239;-83
2022/04/27 06:33:44;;;;;;;1.90;1.60;;;18.80;43.20;;;;;;5054937;28;20204;-83
2022/04/27 06:36:10;;;;;;;3.97;1.63;;;18.90;43.30;;;;;;5056937;28;20172;-82
2022/04/27 06:38:37;;;;;;;2.55;1.40;;;18.90;43.00;;;;;;5057397;28;20272;-82
2022/04/27 06:41:03;;;;;;;1.98;1.40;;;18.90;43.20;;;;;;5023215;28;20194;-82
2022/04/27 06:43:28;;;;;;;2.40;1.45;;;18.90;43.30;;;;;;5041433;28;20252;-82
2022/04/27 06:45:55;;;;;;;1.67;1.45;;;18.90;42.70;;;;;;5040768;28;20154;-81
2022/04/27 06:48:20;;;;;;;2.70;1.70;;;18.90;42.90;;;;;;5074337;28;20158;-82
2022/04/27 06:50:46;;;;;;;2.00;1.60;;;18.90;42.70;;;;;;5076183;28;20234;-82
2022/04/27 06:53:19;;;;;;;2.50;1.60;;;19.00;42.70;;;;;;5058146;28;20255;-82
2022/04/27 06:56:20;;;;;;;;;;;;;;;;;;;;;
2022/04/27 06:59:02;;;;;;;2.70;1.60;;;19.00;43.10;;;;;;5030564;28;20355;-84
2022/04/27 07:01:27;;;;;;;1.67;1.42;;;19.00;42.60;;;;;;5012458;28;20261;-81
2022/04/27 07:03:54;;;;;;;4.13;1.52;;;19.00;43.20;;;;;;5017823;28;20247;-82
2022/04/27 07:06:21;;;;;;;1.52;1.40;;;19.00;42.70;;;;;;5001033;28;20653;-81
2022/04/27 07:08:47;;;;;;;2.55;1.63;;;19.10;42.70;;;;;;5002266;28;20179;-82
2022/04/27 07:11:12;;;;;;;3.15;1.45;;;19.10;43.10;;;;;;5000546;28;20266;-83
2022/04/27 07:13:38;;;;;;;2.75;1.50;;;19.00;42.80;;;;;;4999500;28;20637;-82
2022/04/27 07:16:07;;;;;;;1.98;1.48;;;19.00;43.20;;;;;;4984815;28;20183;-82
2022/04/27 07:18:36;;;;;;;2.33;1.30;;;19.10;43.00;;;;;;4966399;28;20247;-82
2022/04/27 07:21:08;;;;;;;1.65;1.23;;;19.10;42.10;;;;;;4967762;28;20187;-82
2022/04/27 07:23:37;;;;;;;1.52;1.40;;;19.10;42.70;;;;;;4967538;28;20188;-82
2022/04/27 07:26:06;;;;;;;2.30;1.70;;;19.20;42.70;;;;;;4984475;28;20183;-83
2022/04/27 07:28:43;;;;;;;2.35;1.52;;;19.10;43.10;;;;;;4955612;28;20180;-83
2022/04/27 07:31:11;;;;;;;1.60;1.50;;;19.00;43.60;;;;;;5022942;28;20285;-82
2022/04/27 07:33:39;;;;;;;1.23;1.10;;;19.00;42.80;;;;;;5023543;28;20232;-82
2022/04/27 07:36:08;;;;;;;1.75;1.40;;;19.10;42.10;;;;;;5039447;28;20182;-83
2022/04/27 07:38:38;;;;;;;6.38;1.65;;;19.10;42.80;;;;;;5023092;28;20316;-83
2022/04/27 07:41:06;;;;;;;2.78;1.80;;;19.10;42.90;;;;;;5039564;28;20255;-82
2022/04/27 07:43:34;;;;;;;3.25;1.60;;;19.20;41.40;;;;;;5040717;28;20178;-83
2022/04/27 07:46:06;;;;;;;2.45;1.30;;;19.30;42.40;;;;;;5022041;28;20641;-84
2022/04/27 07:48:34;;;;;;;1.55;1.35;;;19.20;42.70;;;;;;5019024;28;20672;-83
2022/04/27 07:51:02;;;;;;;1.60;1.35;;;19.20;42.80;;;;;;5035049;28;20186;-83
2022/04/27 07:53:30;;;;;;;1.85;1.38;;;19.20;42.00;;;;;;5020960;28;20229;-83
2022/04/27 07:55:57;;;;;;;3.42;1.30;;;19.10;42.50;;;;;;5020509;28;20675;-83
2022/04/27 07:58:24;;;;;;;3.55;1.50;;;19.20;42.40;;;;;;5037086;28;20213;-83
2022/04/27 08:00:52;;;;;;;1.90;1.55;;;19.10;42.60;;;;;;5020686;28;20227;-83
2022/04/27 08:03:19;;;;;;;1.35;1.17;;;19.20;42.60;;;;;;5037162;28;20197;-83
2022/04/27 08:05:46;;;;;;;2.35;1.45;;;19.20;42.40;;;;;;5019856;28;20185;-83
2022/04/27 08:08:13;;;;;;;2.47;1.50;;;19.20;42.80;;;;;;5020524;28;20185;-83
2022/04/27 08:10:39;;;;;;;2.40;1.63;;;19.20;42.30;;;;;;5020091;28;20188;-84
2022/04/27 08:13:05;;;;;;;1.70;1.48;;;19.20;42.30;;;;;;5039612;28;20264;-84
2022/04/27 08:15:31;;;;;;;3.20;1.70;;;19.20;41.80;;;;;;5042837;28;20621;-83
2022/04/27 08:18:02;;;;;;;1.77;1.20;;;19.20;41.90;;;;;;5095793;28;20184;-84
2022/04/27 08:23:12;;;;;;;4.68;1.48;;;19.20;42.50;;;;;;5033967;28;20202;-83
2022/04/27 08:25:40;;;;;;;1.27;1.00;;;19.30;42.10;;;;;;4988553;28;20206;-83
2022/04/27 08:28:09;;;;;;;3.80;1.30;;;19.20;42.10;;;;;;4980292;28;20192;-84
2022/04/27 08:30:39;;;;;;;1.85;1.30;;;19.20;42.60;;;;;;4961080;28;20290;-84
2022/04/27 08:33:07;;;;;;;2.30;1.27;;;19.30;42.20;;;;;;4960134;28;20794;-84
2022/04/27 08:35:33;;;;;;;2.28;1.35;;;19.30;42.10;;;;;;4966371;28;20282;-84
2022/04/27 08:38:02;;;;;;;3.53;1.50;;;19.20;42.70;;;;;;5009491;28;20717;-84
2022/04/27 08:40:31;;;;;;;4.65;1.40;;;19.20;42.50;;;;;;4979257;28;20278;-84
2022/04/27 08:43:01;;;;;;;4.80;1.52;;;19.20;42.50;;;;;;4977221;28;20613;-84
2022/04/27 08:45:27;;;;;;;1.73;1.30;;;19.20;42.40;;;;;;4995881;28;20652;-83
2022/04/27 08:47:57;;;;;;;2.60;1.30;;;19.30;41.70;;;;;;4978840;28;20184;-84
2022/04/27 08:50:23;;;;;;;3.67;1.27;;;19.30;42.50;;;;;;4973445;28;20314;-85
2022/04/27 08:52:50;;;;;;;1.58;1.23;;;19.20;42.70;;;;;;5024181;28;195015;-84
2022/04/27 08:55:17;;;;;;;2.50;1.40;;;19.20;42.60;;;;;;5038334;28;20196;-83
2022/04/27 08:57:43;;;;;;;2.63;1.52;;;19.20;42.80;;;;;;5026472;28;20201;-83
2022/04/27 09:00:12;;;;;;;1.88;1.52;;;19.20;42.80;;;;;;5035073;28;20188;-84
2022/04/27 09:02:45;;;;;;;2.67;1.20;;;19.30;42.50;;;;;;5039601;28;20206;-84
2022/04/27 09:05:12;;;;;;;2.47;1.45;;;19.30;42.50;;;;;;5020763;28;20644;-84
2022/04/27 09:08:15;;;;;;;4.40;1.58;;;19.40;42.10;;;;;;5036191;28;20179;-84
2022/04/27 09:10:41;;;;;;;4.50;1.50;;;19.30;42.40;;;;;;4993133;28;20336;-81
2022/04/27 09:13:06;;;;;;;2.05;1.50;;;19.30;42.30;;;;;;4960693;28;20220;-84
2022/04/27 09:15:32;;;;;;;2.28;1.50;;;19.40;41.80;;;;;;4976611;28;20179;-84
2022/04/27 09:23:32;;;;;;;2.53;1.33;;;19.40;42.90;;;;;;4992807;28;20156;-84
2022/04/27 09:26:00;;;;;;;2.50;1.63;;;19.30;42.50;;;;;;4960801;28;20179;-83
2022/04/27 09:28:29;;;;;;;5.65;1.45;;;19.30;42.00;;;;;;4992642;28;20174;-84
2022/04/27 09:30:55;;;;;;;3.47;1.40;;;19.40;42.20;;;;;;4997225;28;20674;-84
2022/04/27 09:33:34;;;;;;;2.95;1.40;;;19.30;43.00;;;;;;4983244;28;20242;-84
2022/04/27 09:36:00;;;;;;;2.20;1.52;;;19.40;42.40;;;;;;4966767;28;20207;-85
2022/04/27 09:38:37;;;;;;;2.65;1.42;;;19.40;42.00;;;;;;4991534;28;20644;-84
2022/04/27 09:41:03;;;;;;;3.28;1.27;;;19.50;42.10;;;;;;5002068;28;20219;-84
2022/04/27 09:43:46;;;;;;;3.47;1.23;;;19.50;41.50;;;;;;4996972;28;20250;-85
2022/04/27 09:46:22;;;;;;;1.90;1.40;;;19.60;41.70;;;;;;5028481;28;20176;-84
2022/04/27 09:49:07;;;;;;;2.45;1.55;;;19.50;42.00;;;;;;5035994;28;20158;-84
2022/04/27 09:51:33;;;;;;;3.97;1.50;;;19.40;42.20;;;;;;5022374;28;20185;-84
2022/04/27 09:53:59;;;;;;;2.65;1.20;;;19.40;42.30;;;;;;5019021;28;20636;-84
2022/04/27 09:56:25;;;;;;;3.80;1.40;;;19.40;42.30;;;;;;5056725;28;20161;-84
2022/04/27 09:58:50;;;;;;;3.17;1.33;;;19.40;42.50;;;;;;5021740;28;20552;-85
2022/04/27 10:01:17;;;;;;;1.20;1.10;;;19.50;42.60;;;;;;5056572;28;20587;-84
2022/04/27 10:03:46;;;;;;;3.65;1.27;;;19.50;42.50;;;;;;5075423;28;20162;-84
2022/04/27 10:06:13;;;;;;;2.03;1.30;;;19.50;41.90;;;;;;5040631;28;20165;-84
2022/04/27 10:08:39;;;;;;;2.95;1.50;;;19.40;42.40;;;;;;5073378;28;20157;-84
2022/04/27 10:11:10;;;;;;;2.78;1.17;;;19.40;42.00;;;;;;5055757;28;20162;-83
2022/04/27 10:13:40;;;;;;;1.38;1.20;;;19.40;42.20;;;;;;5039213;28;20172;-83
2022/04/27 10:16:06;;;;;;;1.70;1.40;;;19.40;42.00;;;;;;5021504;28;20187;-83
2022/04/27 10:18:31;;;;;;;2.05;1.58;;;19.30;42.30;;;;;;5038934;28;20184;-84
2022/04/27 10:20:57;;;;;;;1.63;1.20;;;19.40;42.30;;;;;;5038768;28;20604;-85
2022/04/27 10:23:27;;;;;;;3.47;1.23;;;19.40;42.10;;;;;;5076259;28;20153;-84
2022/04/27 10:26:14;;;;;;;1.20;1.10;;;19.40;41.60;;;;;;5073155;28;20157;-83
2022/04/27 10:28:48;;;;;;;3.17;1.52;;;19.40;41.60;;;;;;5055207;28;20161;-84
2022/04/27 10:31:13;;;;;;;2.13;1.48;;;19.50;42.30;;;;;;5039080;28;20233;-83
2022/04/27 10:33:48;;;;;;;1.60;1.30;;;19.40;41.80;;;;;;5055288;28;20165;-84
2022/04/27 10:36:33;;;;;;;3.38;1.50;;;19.40;41.90;;;;;;5039933;28;20165;-84
2022/04/27 10:39:15;;;;;;;2.40;1.42;;;19.40;41.60;;;;;;5058166;28;20195;-85
2022/04/27 10:41:42;;;;;;;3.13;1.00;;;19.40;42.00;;;;;;5074662;28;20153;-83
2022/04/27 10:44:08;;;;;;;1.58;1.33;;;19.30;40.90;;;;;;5038834;28;20612;-83
2022/04/27 10:46:35;;;;;;;2.65;1.40;;;19.40;42.00;;;;;;5038411;28;20231;-84
2022/04/27 10:49:01;;;;;;;1.48;1.38;;;19.30;41.20;;;;;;5022871;28;20216;-84
2022/04/27 10:51:26;;;;;;;2.58;1.25;;;19.30;41.70;;;;;;5055055;28;20620;-84
2022/04/27 10:53:53;;;;;;;2.22;1.40;;;19.30;41.70;;;;;;5038801;28;20169;-84
2022/04/27 10:56:22;;;;;;;1.27;0.95;;;19.30;42.10;;;;;;5055820;28;20153;-83
2022/04/27 10:58:48;;;;;;;1.27;1.10;;;19.40;40.80;;;;;;5038273;28;20177;-84
2022/04/27 11:01:23;;;;;;;2.47;1.23;;;19.40;40.80;;;;;;5038608;28;20240;-83
2022/04/27 11:04:04;;;;;;;1.38;1.20;;;19.40;41.60;;;;;;4991220;28;20655;-84
2022/04/27 11:07:11;;;;;;;2.78;1.60;;;19.40;41.70;;;;;;4959199;28;20545;-84
2022/04/27 11:10:14;;;;;;;2.72;1.25;;;19.40;41.90;;;;;;4962758;28;20623;-84
2022/04/27 11:12:44;;;;;;;2.08;1.15;;;19.30;41.60;;;;;;4991498;28;20188;-84
2022/04/27 11:15:11;;;;;;;1.63;1.25;;;19.30;42.20;;;;;;4976625;28;20219;-84
2022/04/27 11:17:43;;;;;;;1.70;1.27;;;19.30;42.20;;;;;;4976367;28;20196;-84
2022/04/27 11:20:24;;;;;;;1.35;1.25;;;19.20;41.80;;;;;;4952822;29;20213;-84
2022/04/27 11:22:50;;;;;;;2.88;1.40;;;19.30;41.70;;;;;;4952551;29;20649;-84
2022/04/27 11:25:24;;;;;;;1.77;1.27;;;19.30;42.10;;;;;;4936776;29;20692;-84
2022/04/27 11:27:50;;;;;;;3.45;1.20;;;19.20;42.00;;;;;;4939414;28;20716;-83
2022/04/27 11:30:16;;;;;;;1.40;1.30;;;19.30;41.70;;;;;;5010868;28;20544;-84
2022/04/27 11:32:45;;;;;;;1.45;1.20;;;19.30;41.70;;;;;;4994848;28;20194;-84
2022/04/27 11:35:11;;;;;;;7.03;1.70;;;19.30;42.10;;;;;;5007354;28;20660;-84
2022/04/27 11:37:38;;;;;;;3.13;1.52;;;19.30;41.90;;;;;;5030351;28;20194;-84
2022/04/27 11:40:14;;;;;;;1.80;1.30;;;19.20;41.80;;;;;;4997864;28;20186;-84
2022/04/27 11:42:46;;;;;;;1.58;1.20;;;19.30;42.30;;;;;;5033278;28;20166;-84
2022/04/27 11:45:12;;;;;;;2.22;0.98;;;19.30;42.10;;;;;;5049462;28;20586;-83
2022/04/27 11:47:38;;;;;;;4.20;1.27;;;19.30;41.20;;;;;;5044788;28;20208;-83
2022/04/27 11:50:06;;;;;;;1.27;1.17;;;19.30;41.70;;;;;;5061521;28;20647;-84
2022/04/27 11:52:32;;;;;;;1.80;1.30;;;19.30;41.70;;;;;;5060379;28;20751;-84
2022/04/27 11:55:10;;;;;;;1.65;0.98;;;19.30;41.40;;;;;;5028431;28;20182;-83
2022/04/27 11:57:40;;;;;;;1.35;1.20;;;19.40;41.30;;;;;;5061307;28;20195;-84
2022/04/27 12:00:07;;;;;;;1.55;1.10;;;19.40;41.10;;;;;;5011397;28;20189;-85
2022/04/27 12:02:36;;;;;;;2.08;1.20;;;19.30;40.70;;;;;;5041932;28;20169;-84
2022/04/27 12:05:08;;;;;;;1.17;1.05;;;19.30;41.30;;;;;;5050706;28;20177;-85
2022/04/27 12:07:37;;;;;;;2.38;1.48;;;19.30;41.60;;;;;;5049246;28;20200;-85
2022/04/27 12:10:08;;;;;;;1.75;1.40;;;19.20;41.90;;;;;;5028531;28;20246;-86
2022/04/27 12:12:37;;;;;;;1.85;1.38;;;19.30;41.50;;;;;;5036360;28;20187;-82
2022/04/27 12:15:07;;;;;;;2.00;1.30;;;19.30;41.40;;;;;;5029848;28;20668;-85
2022/04/27 12:18:01;;;;;;;1.85;1.30;;;19.30;41.50;;;;;;5026244;28;20201;-88
2022/04/27 12:20:39;;;;;;;1.33;1.23;;;19.30;41.60;;;;;;5040517;28;20718;-85
2022/04/27 12:23:09;;;;;;;1.40;1.20;;;19.30;41.00;;;;;;5031376;28;20268;-85
2022/04/27 12:25:41;;;;;;;1.13;1.00;;;19.40;41.60;;;;;;5030975;28;20182;-85
2022/04/27 12:28:15;;;;;;;1.63;1.30;;;19.30;41.00;;;;;;5032597;28;20228;-86
2022/04/27 12:30:44;;;;;;;2.40;1.25;;;19.40;40.90;;;;;;5046630;28;20604;-85
2022/04/27 12:33:17;;;;;;;3.05;1.20;;;19.40;40.60;;;;;;5049888;28;20173;-86
2022/04/27 12:38:30;;;;;;;1.42;1.15;;;19.40;40.70;;;;;;5051233;28;20292;-85
2022/04/27 12:41:00;;;;;;;2.25;1.10;;;19.40;41.50;;;;;;5046065;28;20185;-83
2022/04/27 12:43:29;;;;;;;1.10;1.00;;;19.40;40.80;;;;;;5030246;28;20252;-85
2022/04/27 12:46:23;;;;;;;2.15;1.00;;;19.40;40.60;;;;;;5000436;28;20282;-84
2022/04/27 12:49:03;;;;;;;2.55;1.20;;;19.40;40.90;;;;;;5006812;28;20182;-88
2022/04/27 12:51:34;;;;;;;1.10;1.00;;;19.30;41.20;;;;;;4997375;28;20177;-87
2022/04/27 12:54:03;;;;;;;1.13;1.02;;;19.30;41.40;;;;;;5032911;28;20238;-86
2022/04/27 12:56:42;;;;;;;1.70;1.15;;;19.30;41.00;;;;;;5039621;28;20177;-84
2022/04/27 12:59:22;;;;;;;2.25;1.20;;;19.30;41.50;;;;;;5017901;28;20221;-85
2022/04/27 13:02:00;;;;;;;1.77;1.15;;;19.30;40.20;;;;;;5037129;28;20234;-85
2022/04/27 13:04:41;;;;;;;;;;;;;;;;;;;;;
2022/04/27 13:07:15;;;;;;;2.35;1.23;;;19.30;40.80;;;;;;5058268;28;20714;-86
2022/04/27 13:12:31;;;;;;;1.50;1.40;;;19.40;40.50;;;;;;5071973;28;20184;-85
2022/04/27 13:15:04;;;;;;;0.80;0.80;;;19.40;40.70;;;;;;5070197;28;20159;-82
2022/04/27 13:17:30;;;;;;;1.27;1.15;;;19.30;40.40;;;;;;5043527;28;20265;-85
2022/04/27 13:20:02;;;;;;;1.92;1.08;;;19.40;40.40;;;;;;5078218;28;20188;-85